createdAt,value
2022-10-18T00:02:04.569Z,102760.22
2022-10-18T00:04:31.206Z,102763.56
2022-10-18T00:06:57.748Z,102757.44
2022-10-18T00:09:24.973Z,102756.75
2022-10-18T00:11:51.671Z,102762.88
2022-10-18T00:14:18.222Z,102764.69
2022-10-18T00:16:45.373Z,102759.72
2022-10-18T00:19:11.868Z,102767.50
2022-10-18T00:21:38.745Z,102758.59
2022-10-18T00:24:05.706Z,102755.09
2022-10-18T00:26:32.401Z,102755.94
2022-10-18T00:29:01.195Z,102768.34
2022-10-18T00:31:30.622Z,102768.34
2022-10-18T00:34:03.417Z,102769.00
2022-10-18T00:36:32.302Z,102770.00
2022-10-18T00:38:58.980Z,102770.00
2022-10-18T00:41:28.311Z,102767.34
2022-10-18T00:43:56.787Z,102779.06
2022-10-18T00:46:24.481Z,102766.00
2022-10-18T00:48:52.610Z,102766.00
2022-10-18T00:51:21.142Z,102774.09
2022-10-18T00:53:49.057Z,102765.31
2022-10-18T00:56:15.811Z,102770.78
2022-10-18T00:58:43.137Z,102774.44
2022-10-18T01:01:09.809Z,102774.44
2022-10-18T01:03:37.270Z,102778.72
2022-10-18T01:06:03.887Z,102782.19
2022-10-18T01:08:42.253Z,102781.38
2022-10-18T01:11:37.283Z,102788.50
2022-10-18T01:14:29.763Z,102780.00
2022-10-18T01:17:08.673Z,102792.53
2022-10-18T01:19:44.642Z,102777.66
2022-10-18T01:22:22.436Z,102778.66
2022-10-18T01:25:00.425Z,102775.31
2022-10-18T01:27:42.402Z,102781.44
2022-10-18T01:30:33.892Z,102788.41
2022-10-18T01:33:09.438Z,102798.00
2022-10-18T01:35:40.943Z,102801.31
2022-10-18T01:38:13.948Z,102802.03
2022-10-18T01:40:42.166Z,102802.84
2022-10-18T01:43:10.441Z,102798.53
2022-10-18T01:45:37.072Z,102794.22
2022-10-18T01:48:04.148Z,102804.81
2022-10-18T01:50:33.151Z,102800.47
2022-10-18T01:53:00.443Z,102793.38
2022-10-18T01:55:31.135Z,102788.78
2022-10-18T01:58:12.569Z,102784.47
2022-10-18T02:00:42.328Z,102786.97
2022-10-18T02:03:22.140Z,102784.47
2022-10-18T02:05:56.540Z,102790.06
2022-10-18T02:08:30.952Z,102784.09
2022-10-18T02:11:02.625Z,102792.19
2022-10-18T02:13:38.787Z,102795.84
2022-10-18T02:16:11.469Z,102797.78
2022-10-18T02:18:44.717Z,102799.09
2022-10-18T02:21:15.785Z,102795.09
2022-10-18T02:23:44.997Z,102799.88
2022-10-18T02:26:12.293Z,102797.72
2022-10-18T02:28:39.362Z,102793.38
2022-10-18T02:31:19.564Z,102790.91
2022-10-18T02:34:07.736Z,102791.91
2022-10-18T02:36:40.613Z,102792.03
2022-10-18T02:39:16.687Z,102793.34
2022-10-18T02:41:43.594Z,102799.75
2022-10-18T02:44:11.245Z,102788.50
2022-10-18T02:46:39.431Z,102794.09
2022-10-18T02:49:05.934Z,102799.88
2022-10-18T02:51:32.411Z,102797.53
2022-10-18T02:54:01.695Z,102802.28
2022-10-18T02:56:28.167Z,102798.13
2022-10-18T02:58:54.658Z,102808.03
2022-10-18T03:01:21.304Z,102800.25
2022-10-18T03:03:47.907Z,102794.44
2022-10-18T03:06:14.337Z,102791.13
2022-10-18T03:08:40.903Z,102786.16
2022-10-18T03:11:07.463Z,102792.41
2022-10-18T03:13:34.353Z,102801.47
2022-10-18T03:16:01.274Z,102806.94
2022-10-18T03:18:27.829Z,102804.41
2022-10-18T03:20:54.317Z,102802.25
2022-10-18T03:23:20.779Z,102800.06
2022-10-18T03:25:47.422Z,102807.28
2022-10-18T03:28:13.942Z,102803.00
2022-10-18T03:30:40.397Z,102803.13
2022-10-18T03:33:07.095Z,102803.28
2022-10-18T03:35:33.540Z,102803.44
2022-10-18T03:37:59.974Z,102807.22
2022-10-18T03:40:26.468Z,102803.88
2022-10-18T03:42:52.971Z,102810.31
2022-10-18T03:45:19.471Z,102796.25
2022-10-18T03:47:46.199Z,102804.50
2022-10-18T03:50:12.656Z,102801.03
2022-10-18T03:52:39.110Z,102811.19
2022-10-18T03:55:06.198Z,102812.31
2022-10-18T03:57:32.680Z,102804.56
2022-10-18T03:59:59.134Z,102805.00
2022-10-18T04:02:26.006Z,102803.66
2022-10-18T04:04:52.712Z,102796.03
2022-10-18T04:07:19.217Z,102800.78
2022-10-18T04:09:45.666Z,102802.03
2022-10-18T04:12:12.250Z,102805.97
2022-10-18T04:14:38.689Z,102806.34
2022-10-18T04:17:05.166Z,102813.75
2022-10-18T04:19:31.614Z,102802.41
2022-10-18T04:21:58.032Z,102811.75
2022-10-18T04:24:24.537Z,102812.84
2022-10-18T04:26:51.398Z,102806.91
2022-10-18T04:29:17.955Z,102806.28
2022-10-18T04:31:44.523Z,102797.94
2022-10-18T04:34:11.023Z,102802.00
2022-10-18T04:36:37.569Z,102801.28
2022-10-18T04:39:04.207Z,102803.09
2022-10-18T04:41:30.711Z,102801.19
2022-10-18T04:43:57.201Z,102802.03
2022-10-18T04:46:23.607Z,102807.56
2022-10-18T04:48:50.014Z,102802.31
2022-10-18T04:51:16.505Z,102809.66
2022-10-18T04:53:42.914Z,102801.09
2022-10-18T04:56:09.414Z,102805.53
2022-10-18T04:58:35.846Z,102808.28
2022-10-18T05:01:08.048Z,102809.44
2022-10-18T05:03:35.021Z,102800.81
2022-10-18T05:06:02.756Z,102804.44
2022-10-18T05:08:30.648Z,102810.81
2022-10-18T05:10:57.273Z,102803.91
2022-10-18T05:13:23.866Z,102811.81
2022-10-18T05:15:50.423Z,102817.91
2022-10-18T05:18:16.907Z,102827.63
2022-10-18T05:20:43.687Z,102824.16
2022-10-18T05:23:10.870Z,102826.53
2022-10-18T05:25:41.912Z,102825.00
2022-10-18T05:28:34.488Z,102829.00
2022-10-18T05:30:55.878Z,102836.38
2022-10-18T05:33:22.361Z,102837.19
2022-10-18T05:35:48.854Z,102834.44
2022-10-18T05:38:15.315Z,102836.91
2022-10-18T05:40:41.749Z,102838.56
2022-10-18T05:43:08.250Z,102838.28
2022-10-18T05:45:34.719Z,102837.19
2022-10-18T05:48:01.209Z,102846.47
2022-10-18T05:50:27.899Z,102844.66
2022-10-18T05:53:06.845Z,102843.03
2022-10-18T05:55:44.514Z,102849.28
2022-10-18T05:58:11.021Z,102858.00
2022-10-18T06:00:38.616Z,102851.91
2022-10-18T06:03:05.042Z,102864.28
2022-10-18T06:05:31.515Z,102875.81
2022-10-18T06:07:58.145Z,102877.06
2022-10-18T06:10:25.015Z,102872.59
2022-10-18T06:12:51.574Z,102874.41
2022-10-18T06:15:18.237Z,102882.31
2022-10-18T06:17:44.794Z,102888.84
2022-10-18T06:20:11.427Z,102892.88
2022-10-18T06:22:37.910Z,102886.50
2022-10-18T06:25:04.529Z,102888.16
2022-10-18T06:27:31.988Z,102891.63
2022-10-18T06:29:58.671Z,102909.09
2022-10-18T06:32:25.371Z,102909.81
2022-10-18T06:34:51.916Z,102907.16
2022-10-18T06:37:18.331Z,102908.81
2022-10-18T06:39:44.787Z,102907.84
2022-10-18T06:42:11.391Z,102919.25
2022-10-18T06:44:38.207Z,102923.53
2022-10-18T06:47:04.696Z,102920.91
2022-10-18T06:49:31.210Z,102921.88
2022-10-18T06:51:57.686Z,102920.75
2022-10-18T06:54:24.128Z,102929.22
2022-10-18T06:56:50.573Z,102936.69
2022-10-18T06:59:18.136Z,102939.91
2022-10-18T07:01:44.832Z,102945.44
2022-10-18T07:04:11.396Z,102946.97
2022-10-18T07:06:37.906Z,102952.00
2022-10-18T07:09:04.697Z,102958.91
2022-10-18T07:11:31.337Z,102955.19
2022-10-18T07:14:03.268Z,102957.25
2022-10-18T07:16:30.488Z,102960.44
2022-10-18T07:18:57.217Z,102961.25
2022-10-18T07:21:25.136Z,102963.06
2022-10-18T07:23:52.602Z,102958.06
2022-10-18T07:26:29.199Z,102954.88
2022-10-18T07:29:08.087Z,102959.56
2022-10-18T07:31:35.224Z,102969.16
2022-10-18T07:34:07.676Z,102979.28
2022-10-18T07:36:34.514Z,102983.59
2022-10-18T07:39:00.993Z,102977.63
2022-10-18T07:41:27.465Z,102975.13
2022-10-18T07:43:54.040Z,102976.66
2022-10-18T07:46:22.406Z,102983.75
2022-10-18T07:48:49.451Z,102984.41
2022-10-18T07:51:16.023Z,102984.28
2022-10-18T07:53:42.527Z,102991.50
2022-10-18T07:56:16.315Z,103003.75
2022-10-18T07:58:44.140Z,103003.75
2022-10-18T08:01:10.705Z,102999.44
2022-10-18T08:03:38.380Z,102996.25
2022-10-18T08:06:09.086Z,103001.13
2022-10-18T08:08:37.037Z,103010.41
2022-10-18T08:11:12.946Z,103013.19
2022-10-18T08:13:39.466Z,103012.06
2022-10-18T08:16:11.536Z,103009.72
2022-10-18T08:18:39.101Z,103014.84
2022-10-18T08:21:08.454Z,103018.31
2022-10-18T08:23:35.597Z,103015.53
2022-10-18T08:26:03.832Z,103024.28
2022-10-18T08:28:30.454Z,103023.84
2022-10-18T08:30:57.106Z,103014.69
2022-10-18T08:33:23.648Z,103020.41
2022-10-18T08:35:59.757Z,103023.16
2022-10-18T08:38:26.494Z,103014.13
2022-10-18T08:40:53.049Z,103017.44
2022-10-18T08:43:30.305Z,103022.28
2022-10-18T08:45:57.248Z,103010.44
2022-10-18T08:48:32.985Z,103014.34
2022-10-18T08:51:00.584Z,103009.75
2022-10-18T08:53:49.229Z,103014.44
2022-10-18T08:56:21.204Z,103010.53
2022-10-18T08:58:47.737Z,103013.59
2022-10-18T09:01:49.925Z,103011.59
2022-10-18T09:04:25.734Z,103014.94
2022-10-18T09:07:16.074Z,103017.16
2022-10-18T09:10:01.396Z,103020.03
2022-10-18T09:13:01.906Z,103024.72
2022-10-18T09:15:55.014Z,103029.44
2022-10-18T09:18:28.814Z,103031.63
2022-10-18T09:21:12.456Z,103026.59
2022-10-18T09:23:50.475Z,103034.75
2022-10-18T09:26:18.716Z,103051.88
2022-10-18T09:28:48.360Z,103047.63
2022-10-18T09:31:25.291Z,103040.91
2022-10-18T09:34:05.275Z,103052.72
2022-10-18T09:36:37.121Z,103054.09
2022-10-18T09:39:16.621Z,103055.44
2022-10-18T09:41:57.737Z,103045.94
2022-10-18T09:44:28.373Z,103047.03
2022-10-18T09:47:04.316Z,103045.28
2022-10-18T09:49:36.719Z,103054.44
2022-10-18T09:52:09.173Z,103045.03
2022-10-18T09:54:44.918Z,103047.09
2022-10-18T09:57:31.366Z,103056.75
2022-10-18T10:00:00.347Z,103054.16
2022-10-18T10:02:27.158Z,103051.91
2022-10-18T10:04:57.068Z,103048.94
2022-10-18T10:07:32.567Z,103047.66
2022-10-18T10:10:28.922Z,103055.47
2022-10-18T10:13:09.452Z,103058.84
2022-10-18T10:15:40.490Z,103052.16
2022-10-18T10:18:24.858Z,103060.84
2022-10-18T10:20:58.508Z,103068.13
2022-10-18T10:23:26.915Z,103062.69
2022-10-18T10:26:04.996Z,103061.22
2022-10-18T10:28:36.624Z,103063.56
2022-10-18T10:31:30.748Z,103063.41
2022-10-18T10:34:19.777Z,103071.03
2022-10-18T10:36:49.103Z,103071.94
2022-10-18T10:39:19.126Z,103078.78
2022-10-18T10:41:51.200Z,103077.47
2022-10-18T10:44:20.377Z,103072.81
2022-10-18T10:46:49.489Z,103069.34
2022-10-18T10:49:39.580Z,103078.66
2022-10-18T10:52:08.864Z,103075.88
2022-10-18T10:54:50.394Z,103081.88
2022-10-18T10:57:26.207Z,103082.22
2022-10-18T10:59:56.285Z,103079.94
2022-10-18T11:02:26.046Z,103082.25
2022-10-18T11:04:54.944Z,103080.78
2022-10-18T11:07:36.662Z,103079.75
2022-10-18T11:10:11.442Z,103071.97
2022-10-18T11:12:44.076Z,103093.56
2022-10-18T11:15:11.864Z,103094.06
2022-10-18T11:18:10.846Z,103090.56
2022-10-18T11:20:53.004Z,103081.47
2022-10-18T11:23:19.880Z,103079.47
2022-10-18T11:26:04.653Z,103080.63
2022-10-18T11:28:43.424Z,103073.47
2022-10-18T11:31:19.621Z,103075.00
2022-10-18T11:34:22.939Z,103078.66
2022-10-18T11:37:29.132Z,103075.69
2022-10-18T11:40:14.854Z,103079.63
2022-10-18T11:42:57.837Z,103081.63
2022-10-18T11:45:39.620Z,103080.47
2022-10-18T11:48:33.265Z,103085.78
2022-10-18T11:51:08.818Z,103082.59
2022-10-18T11:53:46.170Z,103085.25
2022-10-18T11:56:25.579Z,103083.91
2022-10-18T11:59:16.987Z,103091.03
2022-10-18T12:02:11.010Z,103083.91
2022-10-18T12:04:53.203Z,103076.59
2022-10-18T12:07:38.469Z,103070.75
2022-10-18T12:10:08.534Z,103075.56
2022-10-18T12:12:45.956Z,103081.19
2022-10-18T12:15:22.247Z,103071.22
2022-10-18T12:17:53.911Z,103068.06
2022-10-18T12:20:30.022Z,103072.22
2022-10-18T12:23:02.784Z,103067.22
2022-10-18T12:25:33.916Z,103069.69
2022-10-18T12:28:16.421Z,103064.88
2022-10-18T12:30:51.947Z,103063.84
2022-10-18T12:33:28.338Z,103057.47
2022-10-18T12:36:20.606Z,103063.78
2022-10-18T12:38:58.643Z,103069.13
2022-10-18T12:41:33.515Z,103059.13
2022-10-18T12:44:05.181Z,103062.97
2022-10-18T12:46:46.828Z,103064.25
2022-10-18T12:49:17.523Z,103065.75
2022-10-18T12:51:52.662Z,103067.59
2022-10-18T12:54:25.650Z,103065.44
2022-10-18T12:56:52.179Z,103064.25
2022-10-18T12:59:19.637Z,103057.44
2022-10-18T13:01:54.911Z,103062.91
2022-10-18T13:04:27.754Z,103055.06
2022-10-18T13:07:18.944Z,103049.91
2022-10-18T13:10:27.501Z,103049.38
2022-10-18T13:13:38.831Z,103046.00
2022-10-18T13:16:37.372Z,103040.03
2022-10-18T13:19:19.330Z,103025.72
2022-10-18T13:21:48.602Z,103029.19
2022-10-18T13:24:42.978Z,103026.38
2022-10-18T13:27:37.255Z,103033.81
2022-10-18T13:30:32.308Z,103030.16
2022-10-18T13:33:34.720Z,103027.81
2022-10-18T13:36:25.301Z,103034.44
2022-10-18T13:39:04.040Z,103037.56
2022-10-18T13:41:47.182Z,103043.88
2022-10-18T13:44:33.338Z,103044.06
2022-10-18T13:46:59.700Z,103046.72
2022-10-18T13:49:38.388Z,103048.22
2022-10-18T13:52:23.636Z,103045.28
2022-10-18T13:55:06.026Z,103040.91
2022-10-18T13:57:55.377Z,103041.47
2022-10-18T14:00:42.307Z,103047.59
2022-10-18T14:03:55.116Z,103050.28
2022-10-18T14:06:42.756Z,103049.91
2022-10-18T14:12:28.934Z,103050.00
2022-10-18T14:15:03.535Z,103051.84
2022-10-18T14:17:36.763Z,103055.91
2022-10-18T14:20:13.613Z,103046.78
2022-10-18T14:22:57.429Z,103062.41
2022-10-18T14:25:35.855Z,103065.25
2022-10-18T14:28:36.388Z,103061.69
2022-10-18T14:31:18.552Z,103061.41
2022-10-18T14:33:48.112Z,103064.41
2022-10-18T14:36:22.495Z,103063.22
2022-10-18T14:38:55.133Z,103059.72
2022-10-18T14:41:27.715Z,103072.69
2022-10-18T14:44:12.337Z,103069.72
2022-10-18T14:46:44.186Z,103063.72
2022-10-18T14:49:11.941Z,103071.91
2022-10-18T14:51:40.805Z,103064.44
2022-10-18T14:56:45.537Z,103068.09
2022-10-18T14:59:25.779Z,103072.47
2022-10-18T15:02:01.328Z,103074.00
2022-10-18T15:04:35.212Z,103070.53
2022-10-18T15:07:05.447Z,103082.03
2022-10-18T15:09:34.309Z,103074.09
2022-10-18T15:12:03.359Z,103076.78
2022-10-18T15:14:30.728Z,103080.09
2022-10-18T15:17:04.737Z,103073.28
2022-10-18T15:19:34.517Z,103074.81
2022-10-18T15:25:16.202Z,103077.31
2022-10-18T15:28:02.096Z,103075.69
2022-10-18T15:30:37.831Z,103070.34
2022-10-18T15:33:09.710Z,103068.72
2022-10-18T15:35:40.496Z,103072.19
2022-10-18T15:38:28.422Z,103075.47
2022-10-18T15:40:55.515Z,103070.19
2022-10-18T15:43:28.170Z,103074.66
2022-10-18T15:46:03.485Z,103076.47
2022-10-18T15:48:35.591Z,103081.59
2022-10-18T15:51:47.580Z,103080.59
2022-10-18T15:54:29.698Z,103088.22
2022-10-18T15:56:56.801Z,103087.91
2022-10-18T15:59:28.926Z,103103.47
2022-10-18T16:01:55.456Z,103090.50
2022-10-18T16:04:31.229Z,103091.16
2022-10-18T16:06:58.752Z,103084.84
2022-10-18T16:09:27.759Z,103083.50
2022-10-18T16:11:57.180Z,103084.28
2022-10-18T16:14:25.371Z,103083.25
2022-10-18T16:16:55.187Z,103084.03
2022-10-18T16:19:22.822Z,103090.16
2022-10-18T16:21:50.972Z,103094.25
2022-10-18T16:24:17.732Z,103099.84
2022-10-18T16:26:45.035Z,103090.56
2022-10-18T16:29:14.961Z,103096.78
2022-10-18T16:31:42.139Z,103099.56
2022-10-18T16:34:11.155Z,103099.66
2022-10-18T16:36:37.750Z,103098.78
2022-10-18T16:39:09.267Z,103109.16
2022-10-18T16:41:35.763Z,103109.09
2022-10-18T16:44:02.193Z,103103.56
2022-10-18T16:46:31.813Z,103102.53
2022-10-18T16:48:58.961Z,103101.31
2022-10-18T16:51:26.002Z,103112.53
2022-10-18T16:53:55.785Z,103113.94
2022-10-18T16:56:26.677Z,103112.22
2022-10-18T16:58:53.500Z,103119.75
2022-10-18T17:01:22.068Z,103128.16
2022-10-18T17:03:52.259Z,103121.66
2022-10-18T17:06:24.527Z,103132.09
2022-10-18T17:08:52.099Z,103143.31
2022-10-18T17:11:20.134Z,103139.44
2022-10-18T17:13:46.943Z,103142.69
2022-10-18T17:16:23.292Z,103138.97
2022-10-18T17:18:50.329Z,103139.38
2022-10-18T17:21:16.818Z,103135.34
2022-10-18T17:23:43.219Z,103138.44
2022-10-18T17:26:27.960Z,103141.53
2022-10-18T17:28:59.492Z,103144.75
2022-10-18T17:31:26.101Z,103154.78
2022-10-18T17:33:54.704Z,103149.94
2022-10-18T17:36:21.948Z,103161.25
2022-10-18T17:38:52.917Z,103154.56
2022-10-18T17:41:19.879Z,103159.44
2022-10-18T17:43:47.977Z,103158.22
2022-10-18T17:46:15.046Z,103151.00
2022-10-18T17:48:42.458Z,103153.09
2022-10-18T17:51:14.635Z,103150.72
2022-10-18T17:53:41.508Z,103155.59
2022-10-18T17:56:08.367Z,103153.38
2022-10-18T17:58:35.185Z,103155.75
2022-10-18T18:01:09.706Z,103162.44
2022-10-18T18:03:36.059Z,103160.06
2022-10-18T18:06:15.143Z,103175.53
2022-10-18T18:08:41.594Z,103175.78
2022-10-18T18:11:08.120Z,103182.34
2022-10-18T18:13:34.652Z,103181.78
2022-10-18T18:16:16.944Z,103189.97
2022-10-18T18:18:44.185Z,103181.72
2022-10-18T18:21:11.378Z,103183.69
2022-10-18T18:23:37.873Z,103182.25
2022-10-18T18:26:05.848Z,103183.25
2022-10-18T18:28:32.472Z,103183.81
2022-10-18T18:30:59.208Z,103186.72
2022-10-18T18:33:25.718Z,103190.47
2022-10-18T18:35:59.741Z,103185.44
2022-10-18T18:38:26.753Z,103177.94
2022-10-18T18:41:11.607Z,103175.00
2022-10-18T18:43:39.679Z,103178.91
2022-10-18T18:46:06.909Z,103188.88
2022-10-18T18:48:35.001Z,103188.47
2022-10-18T18:51:05.894Z,103195.09
2022-10-18T18:53:32.693Z,103199.81
2022-10-18T18:56:05.070Z,103206.19
2022-10-18T18:58:32.662Z,103204.66
2022-10-18T19:00:59.242Z,103198.38
2022-10-18T19:03:25.906Z,103198.19
2022-10-18T19:06:02.574Z,103200.41
2022-10-18T19:08:29.095Z,103193.84
2022-10-18T19:10:55.538Z,103201.19
2022-10-18T19:13:22.004Z,103210.31
2022-10-18T19:15:48.567Z,103210.47
2022-10-18T19:18:15.065Z,103205.44
2022-10-18T19:20:41.573Z,103206.69
2022-10-18T19:23:08.040Z,103206.34
2022-10-18T19:25:34.527Z,103203.41
2022-10-18T19:28:01.009Z,103211.69
2022-10-18T19:30:27.467Z,103206.44
2022-10-18T19:33:01.122Z,103209.31
2022-10-18T19:35:29.953Z,103207.50
2022-10-18T19:37:56.395Z,103212.22
2022-10-18T19:40:22.863Z,103209.00
2022-10-18T19:42:49.422Z,103206.75
2022-10-18T19:45:15.987Z,103210.47
2022-10-18T19:47:42.724Z,103210.59
2022-10-18T19:50:09.293Z,103206.41
2022-10-18T19:52:36.164Z,103202.38
2022-10-18T19:55:02.875Z,103202.50
2022-10-18T19:57:29.273Z,103203.59
2022-10-18T19:59:56.705Z,103196.88
2022-10-18T20:02:23.500Z,103209.31
2022-10-18T20:04:50.014Z,103197.38
2022-10-18T20:07:16.473Z,103196.78
2022-10-18T20:09:42.937Z,103203.28
2022-10-18T20:12:09.425Z,103202.94
2022-10-18T20:14:35.872Z,103205.13
2022-10-18T20:17:02.335Z,103206.34
2022-10-18T20:19:28.737Z,103208.38
2022-10-18T20:21:55.727Z,103212.34
2022-10-18T20:24:22.175Z,103213.31
2022-10-18T20:26:48.658Z,103208.28
2022-10-18T20:29:15.247Z,103213.56
2022-10-18T20:31:41.783Z,103210.34
2022-10-18T20:34:11.711Z,103211.44
2022-10-18T20:36:38.281Z,103219.69
2022-10-18T20:39:05.953Z,103213.81
2022-10-18T20:41:35.137Z,103212.28
2022-10-18T20:44:08.392Z,103216.00
2022-10-18T20:46:37.083Z,103211.81
2022-10-18T20:49:05.400Z,103212.78
2022-10-18T20:51:33.697Z,103198.34
2022-10-18T20:54:01.819Z,103199.19
2022-10-18T20:56:28.350Z,103201.25
2022-10-18T20:58:57.083Z,103202.66
2022-10-18T21:01:32.406Z,103204.09
2022-10-18T21:04:02.420Z,103195.63
2022-10-18T21:06:31.792Z,103192.84
2022-10-18T21:09:00.793Z,103190.69
2022-10-18T21:11:30.829Z,103191.41
2022-10-18T21:14:00.267Z,103193.91
2022-10-18T21:16:27.134Z,103195.84
2022-10-18T21:18:53.742Z,103195.84
2022-10-18T21:21:23.214Z,103189.59
2022-10-18T21:23:50.868Z,103190.75
2022-10-18T21:26:26.858Z,103191.72
2022-10-18T21:28:57.743Z,103191.47
2022-10-18T21:31:30.426Z,103190.41
2022-10-18T21:33:59.728Z,103191.16
2022-10-18T21:36:29.832Z,103190.19
2022-10-18T21:38:56.358Z,103198.06
2022-10-18T21:41:23.398Z,103196.41
2022-10-18T21:43:52.130Z,103195.66
2022-10-18T21:46:20.946Z,103190.41
2022-10-18T21:48:50.970Z,103192.06
2022-10-18T21:51:19.591Z,103194.97
2022-10-18T21:53:48.386Z,103204.84
2022-10-18T21:56:18.050Z,103207.56
2022-10-18T21:58:45.319Z,103203.28
2022-10-18T22:01:32.305Z,103205.91
2022-10-18T22:04:01.027Z,103208.63
2022-10-18T22:06:30.084Z,103194.69
2022-10-18T22:08:59.291Z,103193.19
2022-10-18T22:11:31.600Z,103187.81
2022-10-18T22:13:58.177Z,103189.31
2022-10-18T22:16:25.505Z,103195.38
2022-10-18T22:18:53.012Z,103183.41
2022-10-18T22:21:20.505Z,103186.25
2022-10-18T22:23:52.359Z,103184.50
2022-10-18T22:26:25.421Z,103190.13
2022-10-18T22:29:01.258Z,103181.53
2022-10-18T22:31:31.457Z,103189.97
2022-10-18T22:34:04.548Z,103182.88
2022-10-18T22:36:31.731Z,103175.34
2022-10-18T22:38:58.153Z,103177.97
2022-10-18T22:41:25.427Z,103174.19
2022-10-18T22:43:53.022Z,103179.09
2022-10-18T22:46:20.216Z,103182.53
2022-10-18T22:48:46.864Z,103175.63
2022-10-18T22:51:13.769Z,103179.91
2022-10-18T22:53:40.677Z,103183.59
2022-10-18T22:56:09.791Z,103169.75
2022-10-18T22:58:36.272Z,103182.16
2022-10-18T23:01:08.758Z,103178.81
2022-10-18T23:03:35.841Z,103179.88
2022-10-18T23:06:03.482Z,103175.56
2022-10-18T23:08:30.154Z,103176.00
2022-10-18T23:10:59.494Z,103178.00
2022-10-18T23:13:27.680Z,103169.66
2022-10-18T23:16:04.373Z,103176.69
2022-10-18T23:18:32.368Z,103163.56
2022-10-18T23:21:08.026Z,103168.09
2022-10-18T23:23:36.050Z,103160.34
2022-10-18T23:26:07.592Z,103161.09
2022-10-18T23:28:39.137Z,103163.97
2022-10-18T23:31:06.876Z,103164.22
2022-10-18T23:33:33.285Z,103173.22
2022-10-18T23:35:59.825Z,103168.63
2022-10-18T23:38:26.252Z,103172.50
2022-10-18T23:40:52.644Z,103177.97
2022-10-18T23:43:19.055Z,103182.28
2022-10-18T23:48:12.982Z,103182.97
2022-10-18T23:50:39.391Z,103183.22
2022-10-18T23:53:05.944Z,103187.84
2022-10-18T23:55:32.413Z,103186.13
2022-10-18T23:57:58.875Z,103183.31
